Time;durP1;ratioP1;P1;durP2;ratioP2;P2;SDS_P1;SDS_P2;PMS_P1;PMS_P2;Temp;Humidity;BMP_temperature;BMP_pressure;BME280_temperature;BME280_humidity;BME280_pressure;Samples;Min_cycle;Max_cycle;Signal;HPM_P1;HPM_P2
2021/08/28 00:02:12;;;;;;;9.45;7.53;;;15.00;99.90;;;;;;4971289;28;20471;-71
2021/08/28 00:04:39;;;;;;;9.23;7.97;;;15.00;99.90;;;;;;4972446;28;20093;-69
2021/08/28 00:07:06;;;;;;;10.70;9.07;;;15.00;99.90;;;;;;4967785;28;20137;-69
2021/08/28 00:09:33;;;;;;;11.82;9.70;;;15.00;99.90;;;;;;4972272;28;20115;-67
2021/08/28 00:12:00;;;;;;;12.40;9.50;;;15.00;99.90;;;;;;4969130;28;20137;-68
2021/08/28 00:14:26;;;;;;;13.57;11.10;;;15.00;99.90;;;;;;4972206;28;20090;-69
2021/08/28 00:16:53;;;;;;;12.93;11.20;;;15.00;99.90;;;;;;4968202;28;20057;-70
2021/08/28 00:19:20;;;;;;;16.55;12.57;;;15.00;99.90;;;;;;4973045;28;22871;-73
2021/08/28 00:21:47;;;;;;;16.02;11.75;;;15.00;99.90;;;;;;4969341;28;20771;-69
2021/08/28 00:24:14;;;;;;;14.02;12.52;;;15.00;99.90;;;;;;4972583;28;20798;-70
2021/08/28 00:26:41;;;;;;;18.55;13.45;;;15.00;99.90;;;;;;4970488;28;20136;-75
2021/08/28 00:29:08;;;;;;;14.18;10.30;;;15.00;99.90;;;;;;4971317;28;20487;-67
2021/08/28 00:31:35;;;;;;;16.73;12.48;;;15.00;99.90;;;;;;4970590;28;20545;-71
2021/08/28 00:34:02;;;;;;;15.00;11.52;;;15.00;99.90;;;;;;4971597;28;20205;-73
2021/08/28 00:36:29;;;;;;;19.80;12.93;;;15.00;99.90;;;;;;4971812;28;20133;-70
2021/08/28 00:38:56;;;;;;;11.02;9.82;;;15.00;99.90;;;;;;4969418;28;20058;-71
2021/08/28 00:41:23;;;;;;;15.88;12.48;;;15.00;99.90;;;;;;4970641;28;23016;-68
2021/08/28 00:43:50;;;;;;;12.77;11.10;;;15.00;99.90;;;;;;4971265;28;20165;-69
2021/08/28 00:46:17;;;;;;;16.60;12.70;;;15.10;99.90;;;;;;4983109;28;20831;-70
2021/08/28 00:48:45;;;;;;;14.00;11.30;;;15.10;99.90;;;;;;4971744;28;20050;-76
2021/08/28 00:51:13;;;;;;;16.20;11.98;;;15.10;99.90;;;;;;4982541;28;20105;-77
2021/08/28 00:53:43;;;;;;;14.95;11.38;;;15.10;99.90;;;;;;4969991;28;20052;-70
2021/08/28 00:56:10;;;;;;;;;;;15.00;99.90;;;;;;4986234;28;20046;-68
2021/08/28 00:58:37;;;;;;;15.82;10.98;;;15.10;99.90;;;;;;4967704;28;19934;-73
2021/08/28 01:01:15;;;;;;;17.33;12.80;;;15.00;99.90;;;;;;4986617;23;20050;-87
2021/08/28 01:03:47;;;;;;;15.70;11.30;;;15.00;99.90;;;;;;4968061;28;20136;-87
2021/08/28 01:06:40;;;;;;;21.38;16.52;;;15.00;99.90;;;;;;4966445;28;20795;-86
2021/08/28 01:09:37;;;;;;;19.17;13.13;;;15.00;99.90;;;;;;4970862;28;20043;-87
2021/08/28 01:12:37;;;;;;;26.33;14.57;;;15.00;99.90;;;;;;4961861;28;20050;-87
2021/08/28 01:15:12;;;;;;;15.30;13.30;;;15.00;99.90;;;;;;4971077;28;20100;-86
2021/08/28 01:17:45;;;;;;;20.88;13.75;;;15.00;99.90;;;;;;4981250;28;20633;-86
2021/08/28 01:20:49;;;;;;;15.70;12.88;;;15.00;99.90;;;;;;4986604;28;20054;-87
2021/08/28 01:23:38;;;;;;;20.30;14.05;;;15.00;99.90;;;;;;4973783;28;21511;-85
2021/08/28 01:26:22;;;;;;;15.20;13.32;;;15.00;99.90;;;;;;4964430;28;20081;-86
2021/08/28 01:29:29;;;;;;;16.75;13.05;;;15.00;99.90;;;;;;4973227;28;20073;-87
2021/08/28 01:31:57;;;;;;;17.90;12.85;;;15.00;99.90;;;;;;4966237;28;20057;-86
2021/08/28 01:34:27;;;;;;;19.38;14.02;;;15.00;99.90;;;;;;4987487;28;20046;-87
2021/08/28 01:36:55;;;;;;;20.85;13.70;;;15.00;99.90;;;;;;4971700;28;20054;-87
2021/08/28 01:39:47;;;;;;;20.45;13.23;;;15.00;99.90;;;;;;4967370;28;20053;-86
2021/08/28 01:42:24;;;;;;;20.67;14.15;;;15.00;99.90;;;;;;4969446;28;20069;-87
2021/08/28 01:44:52;;;;;;;15.90;13.00;;;15.00;99.90;;;;;;4983888;28;20057;-88
2021/08/28 01:47:21;;;;;;;14.90;12.43;;;15.00;99.90;;;;;;4986411;28;20744;-86
2021/08/28 01:49:50;;;;;;;21.27;13.95;;;15.00;99.90;;;;;;4949910;28;20042;-88
2021/08/28 01:52:19;;;;;;;20.52;14.30;;;15.00;99.90;;;;;;4952238;28;20140;-88
2021/08/28 01:54:49;;;;;;;21.40;15.13;;;15.00;99.90;;;;;;4987238;28;20546;-87
2021/08/28 01:57:17;;;;;;;18.48;12.75;;;15.00;99.90;;;;;;4984670;28;20519;-87
2021/08/28 02:00:01;;;;;;;17.33;14.70;;;15.00;99.90;;;;;;4982976;28;20622;-88
2021/08/28 02:02:43;;;;;;;20.95;15.02;;;15.00;99.90;;;;;;4982981;28;20070;-87
2021/08/28 02:05:12;;;;;;;18.63;13.20;;;15.00;99.90;;;;;;4971490;28;20414;-88
2021/08/28 02:08:10;;;;;;;20.23;13.23;;;15.00;99.90;;;;;;4965884;28;20159;-87
2021/08/28 02:10:47;;;;;;;15.15;12.05;;;15.00;99.90;;;;;;4962874;28;20819;-87
2021/08/28 02:13:34;;;;;;;17.27;14.07;;;15.00;99.90;;;;;;4984183;28;20077;-86
2021/08/28 02:16:10;;;;;;;15.90;13.50;;;15.00;99.90;;;;;;4969048;28;20078;-87
2021/08/28 02:18:48;;;;;;;15.07;11.32;;;14.90;99.90;;;;;;4988651;28;20043;-86
2021/08/28 02:21:52;;;;;;;16.42;12.90;;;14.90;99.90;;;;;;4964376;28;20047;-85
2021/08/28 02:24:34;;;;;;;13.88;11.00;;;15.00;99.90;;;;;;4972760;28;20229;-87
2021/08/28 02:27:09;;;;;;;13.90;11.27;;;14.90;99.90;;;;;;4984612;28;20125;-87
2021/08/28 02:29:50;;;;;;;17.17;11.18;;;14.90;99.90;;;;;;4970613;28;20157;-86
2021/08/28 02:32:20;;;;;;;13.80;11.82;;;14.90;99.90;;;;;;4967683;28;20164;-86
2021/08/28 02:34:48;;;;;;;15.75;11.00;;;14.90;99.90;;;;;;4968397;28;20065;-87
2021/08/28 02:37:16;;;;;;;12.73;10.93;;;14.90;99.90;;;;;;4970504;28;20546;-86
2021/08/28 02:39:45;;;;;;;14.00;11.38;;;14.90;99.90;;;;;;4968289;28;20042;-86
2021/08/28 02:42:13;;;;;;;12.60;10.82;;;14.90;99.90;;;;;;4968261;28;20141;-86
2021/08/28 02:44:42;;;;;;;10.50;9.15;;;14.90;99.90;;;;;;4969078;28;20058;-85
2021/08/28 02:47:11;;;;;;;10.23;8.90;;;14.90;99.90;;;;;;4986945;28;20046;-86
2021/08/28 02:49:40;;;;;;;10.60;9.48;;;14.90;99.90;;;;;;4982170;28;20058;-87
2021/08/28 02:52:19;;;;;;;8.10;6.60;;;14.90;99.90;;;;;;4985310;28;21496;-87
2021/08/28 02:54:52;;;;;;;11.05;9.20;;;14.90;99.90;;;;;;4971738;28;20070;-85
2021/08/28 02:57:20;;;;;;;8.75;7.60;;;14.90;99.90;;;;;;4971391;28;20843;-85
2021/08/28 02:59:48;;;;;;;12.40;8.55;;;14.90;99.90;;;;;;4962891;28;20066;-84
2021/08/28 03:02:17;;;;;;;7.97;6.80;;;14.90;99.90;;;;;;4985396;28;20058;-85
2021/08/28 03:04:45;;;;;;;9.35;7.97;;;14.90;99.90;;;;;;4969402;28;20050;-84
2021/08/28 03:07:13;;;;;;;10.80;8.02;;;14.90;99.90;;;;;;4969210;28;20058;-84
2021/08/28 03:09:40;;;;;;;8.93;7.38;;;14.90;99.90;;;;;;4967857;28;20046;-85
2021/08/28 03:12:08;;;;;;;11.70;8.45;;;14.90;99.90;;;;;;4988523;28;20050;-84
2021/08/28 03:14:36;;;;;;;11.85;8.77;;;14.90;99.90;;;;;;4955048;28;20114;-85
2021/08/28 03:17:05;;;;;;;12.82;9.70;;;14.90;99.90;;;;;;4990181;28;20060;-85
2021/08/28 03:19:42;;;;;;;13.07;9.60;;;14.90;99.90;;;;;;4985841;28;20058;-85
2021/08/28 03:22:17;;;;;;;12.55;9.07;;;15.00;99.90;;;;;;4987281;28;20174;-85
2021/08/28 03:24:55;;;;;;;10.23;8.07;;;15.00;99.90;;;;;;1616576;28;10003120;-85
2021/08/28 03:27:30;;;;;;;10.85;9.80;;;14.90;99.90;;;;;;4614560;28;10001247;-84
2021/08/28 03:30:00;;;;;;;11.52;9.57;;;14.90;99.90;;;;;;4985837;28;20046;-84
2021/08/28 03:32:29;;;;;;;12.52;9.43;;;14.90;99.90;;;;;;4987253;28;20149;-84
2021/08/28 03:34:56;;;;;;;11.43;10.07;;;14.90;99.90;;;;;;4974431;28;20089;-85
2021/08/28 03:37:24;;;;;;;13.52;10.02;;;14.90;99.90;;;;;;4986954;28;20656;-85
2021/08/28 03:39:52;;;;;;;15.23;12.52;;;14.90;99.90;;;;;;4988048;28;20905;-84
2021/08/28 03:42:19;;;;;;;10.95;8.70;;;14.90;99.90;;;;;;4971152;28;20066;-85
2021/08/28 03:44:46;;;;;;;11.48;9.15;;;14.90;99.90;;;;;;4975016;28;20061;-84
2021/08/28 03:47:15;;;;;;;10.07;8.93;;;15.00;99.90;;;;;;4987791;28;22001;-84
2021/08/28 03:49:43;;;;;;;13.27;9.85;;;15.00;99.90;;;;;;4971840;28;20069;-85
2021/08/28 03:52:10;;;;;;;14.88;10.20;;;14.90;99.90;;;;;;4986763;28;20046;-85
2021/08/28 03:54:38;;;;;;;11.02;9.55;;;14.90;99.90;;;;;;4989199;28;20050;-85
2021/08/28 03:57:05;;;;;;;14.07;9.60;;;14.90;99.90;;;;;;4987169;28;20052;-84
2021/08/28 03:59:32;;;;;;;10.75;9.70;;;14.90;99.90;;;;;;4970364;28;20936;-85
2021/08/28 04:01:59;;;;;;;12.98;9.18;;;14.90;99.90;;;;;;4985140;28;20632;-85
2021/08/28 04:04:44;;;;;;;13.10;10.30;;;14.90;99.90;;;;;;4970985;28;20054;-84
2021/08/28 04:07:11;;;;;;;9.93;8.98;;;14.90;99.90;;;;;;4988181;28;20064;-85
2021/08/28 04:09:39;;;;;;;11.02;9.98;;;14.90;99.90;;;;;;4986861;28;20050;-85
2021/08/28 04:12:06;;;;;;;9.70;7.43;;;14.90;99.90;;;;;;4985418;28;20050;-85
2021/08/28 04:14:39;;;;;;;9.18;7.93;;;14.90;99.90;;;;;;4985445;28;20140;-86
2021/08/28 04:17:07;;;;;;;9.23;8.23;;;15.00;99.90;;;;;;4987144;28;20133;-85
2021/08/28 04:19:34;;;;;;;10.32;9.32;;;14.90;99.90;;;;;;4986515;28;20061;-86
2021/08/28 04:22:08;;;;;;;9.77;8.65;;;14.90;99.90;;;;;;4984203;28;20050;-85
2021/08/28 04:25:01;;;;;;;10.30;8.73;;;14.90;99.90;;;;;;4969778;28;20050;-85
2021/08/28 04:27:48;;;;;;;13.90;7.95;;;14.90;99.90;;;;;;4967869;28;20065;-85
2021/08/28 04:30:24;;;;;;;10.55;8.23;;;14.90;99.90;;;;;;4955744;28;20205;-85
2021/08/28 04:32:51;;;;;;;9.73;7.40;;;15.00;99.90;;;;;;4974450;28;20051;-84
2021/08/28 04:35:18;;;;;;;10.38;8.35;;;14.90;99.90;;;;;;4985327;28;20061;-86
2021/08/28 04:37:45;;;;;;;11.25;7.97;;;14.90;99.90;;;;;;4969253;28;20794;-84
2021/08/28 04:40:13;;;;;;;8.38;7.57;;;15.00;99.90;;;;;;4969282;28;20074;-85
2021/08/28 04:42:40;;;;;;;9.07;8.18;;;15.00;99.90;;;;;;4983714;28;20423;-84
2021/08/28 04:45:08;;;;;;;12.57;10.20;;;14.90;99.90;;;;;;4969884;28;20046;-84
2021/08/28 04:47:53;;;;;;;12.65;9.88;;;15.00;99.90;;;;;;4972333;28;20646;-84
2021/08/28 04:50:20;;;;;;;10.40;8.50;;;14.90;99.90;;;;;;4971356;28;20105;-84
2021/08/28 04:52:47;;;;;;;10.55;8.88;;;15.00;99.90;;;;;;4974786;28;20145;-85
2021/08/28 04:55:14;;;;;;;9.40;8.48;;;14.90;99.90;;;;;;4988819;28;20051;-84
2021/08/28 04:57:41;;;;;;;8.77;7.32;;;15.00;99.90;;;;;;4984911;28;20136;-84
2021/08/28 05:00:09;;;;;;;8.68;7.88;;;15.00;99.90;;;;;;4987765;28;20767;-83
2021/08/28 05:03:23;;;;;;;8.80;6.55;;;15.00;99.90;;;;;;5013059;28;20981;-67
2021/08/28 05:05:53;;;;;;;6.72;5.35;;;15.00;99.90;;;;;;5001051;28;20050;-72
2021/08/28 05:08:21;;;;;;;6.50;5.80;;;15.00;99.90;;;;;;5005669;28;20076;-65
2021/08/28 05:10:48;;;;;;;6.60;5.18;;;15.00;99.90;;;;;;5018863;28;20053;-68
2021/08/28 05:13:15;;;;;;;5.88;4.80;;;15.00;99.90;;;;;;5007991;28;20053;-74
2021/08/28 05:15:43;;;;;;;6.30;5.65;;;15.00;99.90;;;;;;5003574;28;20062;-64
2021/08/28 05:18:10;;;;;;;6.97;4.55;;;15.10;99.90;;;;;;5002315;28;20057;-68
2021/08/28 05:20:38;;;;;;;5.95;4.53;;;15.10;99.90;;;;;;5001544;28;20199;-65
2021/08/28 05:23:23;;;;;;;8.10;5.15;;;15.10;99.90;;;;;;5004699;28;20053;-70
2021/08/28 05:25:57;;;;;;;5.40;4.88;;;15.10;99.90;;;;;;4999641;28;20045;-67
2021/08/28 05:28:25;;;;;;;5.32;3.75;;;15.10;99.90;;;;;;5006736;28;20049;-66
2021/08/28 05:30:52;;;;;;;3.50;3.17;;;15.10;99.90;;;;;;5005272;28;20053;-68
2021/08/28 05:33:21;;;;;;;3.92;3.58;;;15.10;99.90;;;;;;5017697;28;20053;-69
2021/08/28 05:35:48;;;;;;;4.78;3.80;;;15.10;99.90;;;;;;5010859;28;20086;-71
2021/08/28 05:38:18;;;;;;;5.45;4.90;;;15.10;99.90;;;;;;5003264;28;20054;-66
2021/08/28 05:40:45;;;;;;;3.95;3.38;;;15.10;99.90;;;;;;5002327;28;20065;-71
2021/08/28 05:43:12;;;;;;;5.78;3.90;;;15.20;99.90;;;;;;5010078;28;20493;-69
2021/08/28 05:45:59;;;;;;;3.50;3.20;;;15.20;99.90;;;;;;4998786;28;20420;-72
2021/08/28 05:48:28;;;;;;;4.43;3.42;;;15.20;99.90;;;;;;4990824;28;20886;-69
2021/08/28 05:50:55;;;;;;;3.03;2.78;;;15.20;99.90;;;;;;5003989;28;20050;-67
2021/08/28 05:53:28;;;;;;;5.15;4.10;;;15.20;99.90;;;;;;5031051;28;20521;-68
2021/08/28 05:55:55;;;;;;;6.13;3.40;;;15.30;99.90;;;;;;5016076;28;20127;-68
2021/08/28 05:58:22;;;;;;;5.50;3.72;;;15.20;99.90;;;;;;5005756;28;20557;-73
2021/08/28 06:00:49;;;;;;;5.03;3.60;;;15.30;99.90;;;;;;5004599;28;20458;-66
2021/08/28 06:03:17;;;;;;;3.65;3.28;;;15.20;99.90;;;;;;5000247;28;20541;-66
2021/08/28 06:05:50;;;;;;;6.15;4.00;;;15.30;99.90;;;;;;5014797;28;20129;-66
2021/08/28 06:08:17;;;;;;;3.97;3.15;;;15.30;99.90;;;;;;5002472;28;20503;-64
2021/08/28 06:11:10;;;;;;;3.90;3.58;;;15.30;99.90;;;;;;4978200;28;20053;-68
2021/08/28 06:14:05;;;;;;;6.47;3.60;;;15.30;99.90;;;;;;4993260;28;20057;-67
2021/08/28 06:16:45;;;;;;;4.25;3.63;;;15.30;99.90;;;;;;4989515;28;20054;-65
2021/08/28 06:19:17;;;;;;;4.07;3.67;;;15.30;99.90;;;;;;5003978;28;20057;-64
2021/08/28 06:21:45;;;;;;;3.72;3.42;;;15.40;99.90;;;;;;4989761;28;20050;-68
2021/08/28 06:24:13;;;;;;;4.90;3.80;;;15.40;99.90;;;;;;4989440;28;20104;-65
2021/08/28 06:26:48;;;;;;;4.28;3.95;;;15.40;99.90;;;;;;4994199;28;20059;-64
2021/08/28 06:29:15;;;;;;;4.20;3.80;;;15.40;99.90;;;;;;4991478;28;20119;-69
2021/08/28 06:31:47;;;;;;;7.07;4.40;;;15.30;99.90;;;;;;5003685;28;20450;-66
2021/08/28 06:34:15;;;;;;;6.13;4.72;;;15.40;99.90;;;;;;5002988;28;20065;-68
2021/08/28 06:36:42;;;;;;;4.47;4.00;;;15.40;99.90;;;;;;4992544;28;20102;-68
2021/08/28 06:39:32;;;;;;;5.05;3.83;;;15.40;99.90;;;;;;4986741;28;20050;-73
2021/08/28 06:42:22;;;;;;;5.20;3.65;;;15.50;99.90;;;;;;4982279;28;20050;-67
2021/08/28 06:45:18;;;;;;;3.30;3.00;;;15.50;99.90;;;;;;4987925;28;20054;-66
2021/08/28 06:48:08;;;;;;;3.08;2.63;;;15.50;99.90;;;;;;4989755;28;20053;-67
2021/08/28 06:50:53;;;;;;;2.47;2.28;;;15.50;99.90;;;;;;4989297;28;20068;-66
2021/08/28 06:53:39;;;;;;;3.65;3.08;;;15.60;99.90;;;;;;4987985;28;20076;-66
2021/08/28 06:56:24;;;;;;;4.45;2.92;;;15.60;99.90;;;;;;4989454;28;20585;-68
2021/08/28 06:59:11;;;;;;;3.45;2.97;;;15.70;99.90;;;;;;4988569;28;20057;-70
2021/08/28 07:01:42;;;;;;;2.65;2.30;;;15.70;99.90;;;;;;5001453;28;20053;-67
2021/08/28 07:04:21;;;;;;;3.40;2.72;;;15.70;99.90;;;;;;4987862;28;20541;-64
2021/08/28 07:07:20;;;;;;;3.22;2.75;;;15.70;99.90;;;;;;4990293;28;20046;-72
2021/08/28 07:09:49;;;;;;;2.58;2.38;;;15.80;99.90;;;;;;4987559;28;20057;-67
2021/08/28 07:12:16;;;;;;;2.40;2.20;;;15.70;99.90;;;;;;4988494;28;20180;-70
2021/08/28 07:14:44;;;;;;;2.35;2.15;;;15.80;99.90;;;;;;4989469;28;20199;-68
2021/08/28 07:17:27;;;;;;;4.35;2.65;;;15.80;99.90;;;;;;4988646;28;20069;-70
2021/08/28 07:19:54;;;;;;;2.42;2.22;;;15.80;99.90;;;;;;5017183;28;20053;-64
2021/08/28 07:22:21;;;;;;;2.40;2.20;;;15.90;99.90;;;;;;5005350;28;20057;-64
2021/08/28 07:24:48;;;;;;;3.08;2.88;;;15.90;99.90;;;;;;4982977;28;20057;-66
2021/08/28 07:27:23;;;;;;;2.40;2.20;;;15.90;99.90;;;;;;4992203;28;20136;-67
2021/08/28 07:29:56;;;;;;;2.38;2.17;;;16.00;99.90;;;;;;4986513;28;20682;-72
2021/08/28 07:32:24;;;;;;;2.30;2.10;;;16.00;99.90;;;;;;5004839;28;20050;-68
2021/08/28 07:34:54;;;;;;;3.22;2.58;;;16.00;99.90;;;;;;5001187;28;20064;-64
2021/08/28 07:37:22;;;;;;;2.05;1.92;;;16.10;99.90;;;;;;4988667;28;20050;-64
2021/08/28 07:39:49;;;;;;;2.38;2.17;;;16.10;99.90;;;;;;5001578;28;20057;-64
2021/08/28 07:42:17;;;;;;;2.65;2.45;;;16.10;99.90;;;;;;4986546;28;20741;-70
2021/08/28 07:44:45;;;;;;;1.98;1.77;;;16.10;99.90;;;;;;4997307;28;20050;-66
2021/08/28 07:47:13;;;;;;;2.22;2.03;;;16.10;99.90;;;;;;4987564;28;20052;-63
2021/08/28 07:49:40;;;;;;;1.90;1.65;;;16.10;99.90;;;;;;5001307;28;20062;-67
2021/08/28 07:52:07;;;;;;;1.77;1.67;;;16.10;99.90;;;;;;4985484;28;20127;-67
2021/08/28 07:54:34;;;;;;;2.15;2.05;;;16.10;99.90;;;;;;4998043;28;20046;-70
2021/08/28 07:57:02;;;;;;;2.38;1.73;;;16.10;99.90;;;;;;4983817;28;20424;-66
2021/08/28 07:59:29;;;;;;;2.22;1.90;;;16.10;99.90;;;;;;4989190;28;20050;-65
2021/08/28 08:01:57;;;;;;;3.13;2.08;;;16.10;99.90;;;;;;4987379;28;20520;-70
2021/08/28 08:04:26;;;;;;;3.28;2.97;;;16.10;99.90;;;;;;4984000;28;20053;-66
2021/08/28 08:07:11;;;;;;;3.38;3.08;;;16.10;99.90;;;;;;4986516;28;20135;-68
2021/08/28 08:10:05;;;;;;;3.33;3.03;;;16.10;99.90;;;;;;4981704;28;20054;-71
2021/08/28 08:12:50;;;;;;;3.00;2.70;;;16.10;99.90;;;;;;4985682;28;20056;-68
2021/08/28 08:15:38;;;;;;;6.22;4.18;;;16.10;99.90;;;;;;4982076;28;20054;-65
2021/08/28 08:18:34;;;;;;;4.25;3.50;;;16.20;99.90;;;;;;4932229;28;20051;-68
2021/08/28 08:21:27;;;;;;;3.83;3.42;;;16.20;99.90;;;;;;4983543;28;20148;-64
2021/08/28 08:24:12;;;;;;;5.68;5.18;;;16.20;99.90;;;;;;4982523;28;20545;-67
2021/08/28 08:27:03;;;;;;;5.50;4.95;;;16.20;99.90;;;;;;4984043;28;20062;-64
2021/08/28 08:29:53;;;;;;;7.93;6.53;;;16.20;99.90;;;;;;4979729;28;20050;-66
2021/08/28 08:32:31;;;;;;;7.53;6.25;;;16.20;99.90;;;;;;5017092;28;20061;-63
2021/08/28 08:34:58;;;;;;;9.10;7.95;;;16.30;99.90;;;;;;4984521;28;20061;-70
2021/08/28 08:37:32;;;;;;;9.25;8.32;;;16.30;99.90;;;;;;4997075;28;20050;-67
2021/08/28 08:40:01;;;;;;;7.70;6.97;;;16.20;99.90;;;;;;4983444;28;20061;-67
2021/08/28 08:42:36;;;;;;;8.98;7.93;;;16.30;99.90;;;;;;4985430;28;20358;-67
2021/08/28 08:45:05;;;;;;;8.65;7.18;;;16.20;99.90;;;;;;4984795;28;20870;-64
2021/08/28 08:47:37;;;;;;;8.60;7.80;;;16.30;99.90;;;;;;4985049;28;20132;-67
2021/08/28 08:50:05;;;;;;;8.02;7.32;;;16.20;99.90;;;;;;4987751;28;20488;-66
2021/08/28 08:52:58;;;;;;;9.25;7.60;;;16.20;99.90;;;;;;4984550;28;20526;-74
2021/08/28 08:55:36;;;;;;;6.38;5.78;;;16.20;99.90;;;;;;4986420;28;20042;-68
2021/08/28 08:58:18;;;;;;;8.15;6.70;;;16.30;99.90;;;;;;5001530;28;20128;-66
2021/08/28 09:00:56;;;;;;;8.95;8.10;;;16.30;99.90;;;;;;5001337;28;20120;-67
2021/08/28 09:03:26;;;;;;;7.57;6.80;;;16.30;99.90;;;;;;4987838;28;20050;-64
2021/08/28 09:05:57;;;;;;;7.53;6.03;;;16.30;99.90;;;;;;4983898;28;22184;-71
2021/08/28 09:08:28;;;;;;;6.32;5.35;;;16.40;99.90;;;;;;4984098;28;20900;-65
2021/08/28 09:10:54;;;;;;;7.95;5.50;;;16.40;99.90;;;;;;4986722;28;20443;-69
2021/08/28 09:13:24;;;;;;;5.88;5.38;;;16.50;99.90;;;;;;4987845;28;20076;-66
2021/08/28 09:15:55;;;;;;;8.23;6.22;;;16.50;99.90;;;;;;4985404;28;20100;-67
2021/08/28 09:18:51;;;;;;;4.97;4.45;;;16.50;99.90;;;;;;4990255;28;20155;-71
2021/08/28 09:21:22;;;;;;;6.30;4.82;;;16.50;99.90;;;;;;4987448;28;20113;-64
2021/08/28 09:23:59;;;;;;;7.55;6.05;;;16.50;99.90;;;;;;4985720;28;20119;-65
2021/08/28 09:26:33;;;;;;;6.32;4.97;;;16.50;99.90;;;;;;4986239;28;20060;-66
2021/08/28 09:29:01;;;;;;;6.95;5.03;;;16.60;99.90;;;;;;4986185;28;20145;-68
2021/08/28 09:31:40;;;;;;;4.22;3.83;;;16.60;99.90;;;;;;4985745;28;20133;-68
2021/08/28 09:34:17;;;;;;;4.00;3.60;;;16.70;99.90;;;;;;4987095;28;20050;-65
2021/08/28 09:36:44;;;;;;;7.00;4.05;;;16.70;99.90;;;;;;4988598;28;20145;-67
2021/08/28 09:39:12;;;;;;;3.85;3.45;;;16.70;99.90;;;;;;4987846;28;20062;-67
2021/08/28 09:41:39;;;;;;;5.40;4.18;;;16.70;99.90;;;;;;4984739;28;20148;-65
2021/08/28 09:44:10;;;;;;;4.60;3.83;;;16.70;99.90;;;;;;4988220;28;20595;-65
2021/08/28 09:46:37;;;;;;;3.40;2.95;;;16.70;99.90;;;;;;4986356;28;20054;-69
2021/08/28 09:49:05;;;;;;;3.65;3.22;;;16.70;99.90;;;;;;4988004;28;20176;-67
2021/08/28 09:51:40;;;;;;;2.67;2.47;;;16.80;99.90;;;;;;4989232;28;20100;-69
2021/08/28 09:54:11;;;;;;;5.38;4.10;;;16.80;99.90;;;;;;4990333;28;20160;-68
2021/08/28 09:56:41;;;;;;;4.32;3.58;;;16.80;99.90;;;;;;5005676;28;20193;-67
2021/08/28 09:59:18;;;;;;;3.70;3.25;;;16.80;99.90;;;;;;4992686;28;20135;-66
2021/08/28 10:01:47;;;;;;;3.67;3.35;;;16.90;99.90;;;;;;4991174;28;20086;-71
2021/08/28 10:04:14;;;;;;;4.80;4.13;;;16.90;99.90;;;;;;4990071;28;20052;-65
2021/08/28 10:06:46;;;;;;;4.05;3.65;;;16.90;99.90;;;;;;4988125;28;20479;-67
2021/08/28 10:09:14;;;;;;;3.70;3.40;;;16.90;99.90;;;;;;4992041;28;20049;-70
2021/08/28 10:11:50;;;;;;;3.35;3.05;;;17.00;99.90;;;;;;4989508;28;20138;-71
2021/08/28 10:14:19;;;;;;;4.07;3.63;;;17.00;99.90;;;;;;4992142;28;20097;-68
2021/08/28 10:16:48;;;;;;;4.50;4.10;;;16.90;99.90;;;;;;4990049;28;20097;-74
2021/08/28 10:19:17;;;;;;;3.90;3.50;;;16.90;99.90;;;;;;4990971;28;20677;-69
2021/08/28 10:21:46;;;;;;;6.63;5.93;;;16.90;99.90;;;;;;4988227;28;20768;-67
2021/08/28 10:24:15;;;;;;;7.03;5.45;;;16.80;99.90;;;;;;4991074;28;20093;-69
2021/08/28 10:26:43;;;;;;;9.02;8.13;;;16.80;99.90;;;;;;4989253;28;20137;-67
2021/08/28 10:29:13;;;;;;;13.00;11.70;;;16.80;99.90;;;;;;4990569;28;20883;-68
2021/08/28 10:31:41;;;;;;;17.45;14.38;;;16.70;99.90;;;;;;4989291;28;20061;-71
2021/08/28 10:34:09;;;;;;;20.90;15.75;;;16.70;99.90;;;;;;4990442;28;20783;-68
2021/08/28 10:36:36;;;;;;;20.08;16.00;;;16.70;99.90;;;;;;4988978;28;20092;-69
2021/08/28 10:39:06;;;;;;;25.65;20.48;;;16.70;99.90;;;;;;4990982;28;20148;-77
2021/08/28 10:41:36;;;;;;;24.90;19.45;;;16.70;99.90;;;;;;4990076;28;20800;-66
2021/08/28 10:44:03;;;;;;;;;;;16.60;99.90;;;;;;5004153;28;20070;-71
2021/08/28 10:46:31;;;;;;;24.20;19.30;;;16.60;99.90;;;;;;5004640;28;20843;-71
2021/08/28 10:49:20;;;;;;;34.63;23.10;;;16.70;99.90;;;;;;4990845;28;20050;-71
2021/08/28 10:51:53;;;;;;;26.25;20.83;;;16.70;99.90;;;;;;4986663;28;20057;-75
2021/08/28 10:54:24;;;;;;;28.60;21.92;;;16.60;99.90;;;;;;4990617;28;20173;-75
2021/08/28 10:57:01;;;;;;;27.15;21.75;;;16.70;99.90;;;;;;4990198;28;20503;-69
2021/08/28 10:59:27;;;;;;;25.88;21.63;;;16.60;99.90;;;;;;4990192;28;20117;-72
2021/08/28 11:01:58;;;;;;;37.28;23.38;;;16.60;99.90;;;;;;4987500;28;20180;-71
2021/08/28 11:04:47;;;;;;;27.52;20.33;;;16.60;99.90;;;;;;4990772;28;20061;-75
2021/08/28 11:07:41;;;;;;;27.60;23.95;;;16.60;99.90;;;;;;4988581;28;20399;-77
2021/08/28 11:10:17;;;;;;;34.78;23.90;;;16.60;99.90;;;;;;4987867;28;20150;-69
2021/08/28 11:12:53;;;;;;;24.70;21.65;;;16.60;99.90;;;;;;4988201;28;20140;-78
2021/08/28 11:15:35;;;;;;;30.52;22.85;;;16.70;99.90;;;;;;4989290;28;20152;-75
2021/08/28 11:18:06;;;;;;;35.05;24.65;;;16.70;99.90;;;;;;4988685;28;20042;-67
2021/08/28 11:20:43;;;;;;;27.83;21.73;;;16.70;99.90;;;;;;4988226;28;20129;-74
2021/08/28 11:23:18;;;;;;;27.20;20.25;;;16.70;99.90;;;;;;4988974;28;20180;-67
2021/08/28 11:25:50;;;;;;;20.58;18.40;;;16.70;99.90;;;;;;4986451;28;20050;-66
2021/08/28 11:28:21;;;;;;;25.33;19.45;;;16.70;99.90;;;;;;4985557;28;20049;-65
2021/08/28 11:30:48;;;;;;;21.02;17.90;;;16.80;99.90;;;;;;4989785;28;20053;-67
2021/08/28 11:33:27;;;;;;;24.80;17.63;;;16.80;99.90;;;;;;4987900;28;20054;-66
2021/08/28 11:36:04;;;;;;;16.50;14.68;;;16.90;99.90;;;;;;4986729;28;20148;-66
2021/08/28 11:38:50;;;;;;;18.58;14.35;;;16.80;99.90;;;;;;4988953;28;20203;-66
2021/08/28 11:41:26;;;;;;;15.95;14.25;;;16.80;99.90;;;;;;4990061;28;20057;-66
2021/08/28 11:43:54;;;;;;;18.23;16.42;;;16.90;99.90;;;;;;4987252;28;20050;-66
2021/08/28 11:46:28;;;;;;;17.42;14.40;;;16.90;99.90;;;;;;4989340;28;20402;-71
2021/08/28 11:48:56;;;;;;;14.40;12.95;;;16.90;99.90;;;;;;4988551;28;20053;-71
2021/08/28 11:51:25;;;;;;;17.60;13.95;;;16.90;99.90;;;;;;4985643;28;20144;-69
2021/08/28 11:54:01;;;;;;;20.27;15.60;;;16.80;99.90;;;;;;4985280;28;20563;-66
2021/08/28 11:56:35;;;;;;;19.70;17.70;;;16.80;99.90;;;;;;4988172;28;20139;-68
2021/08/28 11:59:07;;;;;;;25.48;19.05;;;16.80;99.90;;;;;;4985073;28;20050;-68
2021/08/28 12:01:38;;;;;;;28.10;19.92;;;16.80;99.90;;;;;;4989259;28;20046;-67
2021/08/28 12:04:11;;;;;;;32.03;23.08;;;16.80;99.90;;;;;;4986501;28;20081;-66
2021/08/28 12:06:40;;;;;;;25.50;20.83;;;16.70;99.90;;;;;;4987956;28;20073;-66
2021/08/28 12:09:09;;;;;;;26.55;20.33;;;16.70;99.90;;;;;;4986044;28;20101;-67
2021/08/28 12:11:43;;;;;;;21.88;19.10;;;16.70;99.90;;;;;;4989849;28;20142;-67
2021/08/28 12:14:10;;;;;;;29.55;21.98;;;16.70;99.90;;;;;;4986122;28;20188;-66
2021/08/28 12:16:39;;;;;;;22.58;19.00;;;16.70;99.90;;;;;;4985047;28;20076;-66
2021/08/28 12:19:30;;;;;;;28.98;18.92;;;16.70;99.90;;;;;;4988086;28;20843;-67
2021/08/28 12:21:59;;;;;;;24.00;18.65;;;16.70;99.90;;;;;;4986390;28;20144;-67
2021/08/28 12:24:28;;;;;;;18.73;16.75;;;16.70;99.90;;;;;;4987157;28;20048;-69
2021/08/28 12:27:02;;;;;;;19.15;15.20;;;16.70;99.90;;;;;;4987437;28;21554;-67
2021/08/28 12:29:46;;;;;;;20.17;16.50;;;16.70;99.90;;;;;;4986559;28;20169;-67
2021/08/28 12:32:21;;;;;;;22.45;19.45;;;16.70;99.90;;;;;;4985495;28;20160;-68
2021/08/28 12:34:56;;;;;;;23.67;18.05;;;16.70;99.90;;;;;;4987121;28;20212;-68
2021/08/28 12:37:26;;;;;;;27.70;20.77;;;16.60;99.90;;;;;;4986235;28;20606;-67
2021/08/28 12:39:55;;;;;;;24.95;21.35;;;16.60;99.90;;;;;;4986642;28;20085;-65
2021/08/28 12:42:24;;;;;;;27.65;20.30;;;16.60;99.90;;;;;;4986679;28;20073;-65
2021/08/28 12:45:00;;;;;;;27.47;22.10;;;16.50;99.90;;;;;;4987889;28;20045;-65
2021/08/28 12:47:30;;;;;;;27.60;20.70;;;16.50;99.90;;;;;;4984764;28;20835;-66
2021/08/28 12:49:58;;;;;;;25.20;19.95;;;16.50;99.90;;;;;;4985520;28;20551;-66
2021/08/28 12:52:39;;;;;;;29.67;23.08;;;16.50;99.90;;;;;;4985174;28;20654;-67
2021/08/28 12:55:16;;;;;;;32.80;23.60;;;16.50;99.90;;;;;;4983945;28;20135;-68
2021/08/28 12:57:43;;;;;;;27.45;22.08;;;16.50;99.90;;;;;;4983175;28;20054;-65
2021/08/28 13:00:10;;;;;;;29.13;23.17;;;16.50;99.90;;;;;;4986598;28;20077;-68
2021/08/28 13:02:48;;;;;;;30.98;24.50;;;16.50;99.90;;;;;;4985196;28;20177;-68
2021/08/28 13:05:27;;;;;;;28.20;20.17;;;16.50;99.90;;;;;;4985642;28;20046;-68
2021/08/28 13:07:56;;;;;;;25.02;20.33;;;16.40;99.90;;;;;;4985307;28;20969;-65
2021/08/28 13:10:25;;;;;;;28.15;21.55;;;16.50;99.90;;;;;;4987551;28;20144;-68